Impacts METAR Board
IDs:

KPHX - Phoenix/Sky Harbor, AZ, US

Updated at: 2300 UTC 01 Mar 2021
Potential Impact None Slight Moderate High
Time 01/11Z 01/12Z 01/13Z 01/14Z 01/15Z 01/16Z 01/17Z 01/18Z 01/19Z 01/20Z 01/21Z 01/22Z 01/23Z
Temp46 45 41 41 45 50 55 58 64 65 67 69 68
Dewpt-0 1 5 4 5 6 6 3 3 5 7 8 7
Altim30.23 30.24 30.26 30.28 30.29 30.31 30.31 30.30 30.28 30.26 30.21 30.18 30.16
VIS10 10 10 10 10 10 10 10 10 10 10 10 10
CIG-- -- -- -- -- -- -- -- -- -- -- -- --
CoverCLRCLRCLRCLRCLRCLRCLRCLRFEWFEWFEWFEWFEW
FltCatVFRVFRVFRVFRVFRVFRVFRVFRVFRVFRVFRVFRVFR
WX--------------------------
WDir290350240220000270905000350
WSpd3 3 4 4 0 0 0 3 11 6 4 4 3
WGst-- -- -- -- -- -- -- -- -- -- -- -- --
Raw hourly METARs
KPHX 011051Z 29003KT 10SM CLR 08/M18 A3023 RMK AO2 SLP230 T00781178 $
KPHX 011151Z 35003KT 10SM CLR 07/M17 A3024 RMK AO2 SLP235 T00721172 10128 20056 53008 $
KPHX 011251Z 24004KT 10SM CLR 05/M15 A3026 RMK AO2 SLP243 T00501150 $
KPHX 011351Z 22004KT 10SM CLR 05/M16 A3028 RMK AO2 SLP250 T00501156 $
KPHX 011451Z 00000KT 10SM CLR 07/M15 A3029 RMK AO2 SLP255 T00721150 53018 $
KPHX 011551Z 00000KT 10SM CLR 10/M14 A3031 RMK AO2 SLP260 T01001144
KPHX 011651Z 00000KT 10SM CLR 13/M14 A3031 RMK AO2 SLP259 T01281144
KPHX 011751Z 27003KT 10SM CLR 14/M16 A3030 RMK AO2 SLP256 T01441161 10150 20039 50003
KPHX 011851Z 09011KT 040V100 10SM FEW010 18/M16 A3028 RMK AO2 SLP247 FU FEW010 S T01781161
KPHX 011951Z 05006KT 10SM FEW250 18/M15 A3026 RMK AO2 SLP238 T01831150
KPHX 012051Z VRB04KT 10SM FEW250 19/M14 A3021 RMK AO2 SLP223 T01941139 58030
KPHX 012151Z VRB04KT 10SM FEW250 21/M13 A3018 RMK AO2 SLP212 T02061133
KPHX 012251Z 35003KT 10SM FEW250 20/M14 A3016 RMK AO2 SLP205 T02001139



Page loaded:  23:28 UTC  |   03:28 PM Pacific  |   04:28 PM Mountain  |   05:28 PM Central  |   06:28 PM Eastern

 

ADVISORIES

FORECASTS

FORECASTS

OBSERVATIONS

USER TOOLS

ABOUT US